sensor_id;sensor_type;location;lat;lon;timestamp;P1;durP1;ratioP1;P2;durP2;ratioP2
21095;SDS011;10706;49.036;12.112;2023-04-29T00:01:37;36.63;;;17.97;;
21095;SDS011;10706;49.036;12.112;2023-04-29T00:04:07;38.90;;;18.00;;
21095;SDS011;10706;49.036;12.112;2023-04-29T00:06:40;38.95;;;16.92;;
21095;SDS011;10706;49.036;12.112;2023-04-29T00:09:12;35.83;;;16.92;;
21095;SDS011;10706;49.036;12.112;2023-04-29T00:11:45;38.25;;;18.73;;
21095;SDS011;10706;49.036;12.112;2023-04-29T00:14:29;35.97;;;17.73;;
21095;SDS011;10706;49.036;12.112;2023-04-29T00:16:58;40.85;;;18.13;;
21095;SDS011;10706;49.036;12.112;2023-04-29T00:22:20;35.85;;;16.55;;
21095;SDS011;10706;49.036;12.112;2023-04-29T00:25:07;33.65;;;16.48;;
21095;SDS011;10706;49.036;12.112;2023-04-29T00:28:04;38.83;;;17.20;;
21095;SDS011;10706;49.036;12.112;2023-04-29T00:30:42;35.72;;;17.17;;
21095;SDS011;10706;49.036;12.112;2023-04-29T00:33:21;38.42;;;18.35;;
21095;SDS011;10706;49.036;12.112;2023-04-29T00:35:54;38.97;;;18.73;;
21095;SDS011;10706;49.036;12.112;2023-04-29T00:38:37;41.83;;;19.00;;
21095;SDS011;10706;49.036;12.112;2023-04-29T00:41:15;41.43;;;19.23;;
21095;SDS011;10706;49.036;12.112;2023-04-29T00:43:51;44.03;;;20.77;;
21095;SDS011;10706;49.036;12.112;2023-04-29T00:46:23;46.17;;;20.50;;
21095;SDS011;10706;49.036;12.112;2023-04-29T00:48:54;41.00;;;20.30;;
21095;SDS011;10706;49.036;12.112;2023-04-29T00:51:28;48.55;;;20.75;;
21095;SDS011;10706;49.036;12.112;2023-04-29T00:53:59;47.20;;;20.88;;
21095;SDS011;10706;49.036;12.112;2023-04-29T00:56:39;47.13;;;21.20;;
21095;SDS011;10706;49.036;12.112;2023-04-29T00:59:13;46.92;;;21.25;;
21095;SDS011;10706;49.036;12.112;2023-04-29T01:01:44;49.83;;;21.37;;
21095;SDS011;10706;49.036;12.112;2023-04-29T01:04:32;48.60;;;21.63;;
21095;SDS011;10706;49.036;12.112;2023-04-29T01:13:53;40.97;;;18.23;;
21095;SDS011;10706;49.036;12.112;2023-04-29T01:19:58;38.13;;;18.02;;
21095;SDS011;10706;49.036;12.112;2023-04-29T01:22:29;41.50;;;19.37;;
21095;SDS011;10706;49.036;12.112;2023-04-29T01:25:15;39.08;;;18.42;;
21095;SDS011;10706;49.036;12.112;2023-04-29T01:38:06;33.53;;;15.93;;
21095;SDS011;10706;49.036;12.112;2023-04-29T01:41:36;33.70;;;15.40;;
21095;SDS011;10706;49.036;12.112;2023-04-29T01:44:48;33.22;;;15.70;;
21095;SDS011;10706;49.036;12.112;2023-04-29T01:47:22;35.55;;;15.27;;
21095;SDS011;10706;49.036;12.112;2023-04-29T01:49:54;32.47;;;16.02;;
21095;SDS011;10706;49.036;12.112;2023-04-29T01:52:27;35.90;;;16.63;;
21095;SDS011;10706;49.036;12.112;2023-04-29T01:55:00;34.22;;;17.10;;
21095;SDS011;10706;49.036;12.112;2023-04-29T01:57:46;36.37;;;17.90;;
21095;SDS011;10706;49.036;12.112;2023-04-29T02:00:19;33.47;;;16.77;;
21095;SDS011;10706;49.036;12.112;2023-04-29T02:02:48;36.95;;;16.77;;
21095;SDS011;10706;49.036;12.112;2023-04-29T02:05:24;34.53;;;17.48;;
21095;SDS011;10706;49.036;12.112;2023-04-29T02:08:00;38.63;;;16.60;;
21095;SDS011;10706;49.036;12.112;2023-04-29T02:10:38;38.73;;;17.03;;
21095;SDS011;10706;49.036;12.112;2023-04-29T02:13:09;40.10;;;19.00;;
21095;SDS011;10706;49.036;12.112;2023-04-29T02:16:07;41.63;;;19.03;;
21095;SDS011;10706;49.036;12.112;2023-04-29T02:18:43;47.22;;;19.92;;
21095;SDS011;10706;49.036;12.112;2023-04-29T02:21:11;42.87;;;19.47;;
21095;SDS011;10706;49.036;12.112;2023-04-29T02:23:41;47.73;;;19.47;;
21095;SDS011;10706;49.036;12.112;2023-04-29T02:26:30;43.97;;;18.00;;
21095;SDS011;10706;49.036;12.112;2023-04-29T02:29:13;44.67;;;19.13;;
21095;SDS011;10706;49.036;12.112;2023-04-29T02:31:44;45.85;;;19.65;;
21095;SDS011;10706;49.036;12.112;2023-04-29T02:34:31;43.93;;;20.13;;
21095;SDS011;10706;49.036;12.112;2023-04-29T02:37:08;48.27;;;20.37;;
21095;SDS011;10706;49.036;12.112;2023-04-29T02:39:40;43.80;;;18.97;;
21095;SDS011;10706;49.036;12.112;2023-04-29T02:42:18;39.13;;;18.08;;
21095;SDS011;10706;49.036;12.112;2023-04-29T02:45:02;39.35;;;18.38;;
21095;SDS011;10706;49.036;12.112;2023-04-29T02:47:42;41.80;;;18.73;;
21095;SDS011;10706;49.036;12.112;2023-04-29T02:50:30;41.67;;;18.37;;
21095;SDS011;10706;49.036;12.112;2023-04-29T02:53:06;37.20;;;17.27;;
21095;SDS011;10706;49.036;12.112;2023-04-29T02:55:46;44.88;;;17.77;;
21095;SDS011;10706;49.036;12.112;2023-04-29T02:58:23;36.15;;;16.10;;
21095;SDS011;10706;49.036;12.112;2023-04-29T03:00:59;40.25;;;17.00;;
21095;SDS011;10706;49.036;12.112;2023-04-29T03:03:36;39.03;;;17.90;;
21095;SDS011;10706;49.036;12.112;2023-04-29T03:06:14;39.47;;;17.73;;
21095;SDS011;10706;49.036;12.112;2023-04-29T03:09:26;36.47;;;17.35;;
21095;SDS011;10706;49.036;12.112;2023-04-29T03:11:35;36.30;;;16.83;;
21095;SDS011;10706;49.036;12.112;2023-04-29T03:14:12;47.07;;;18.40;;
21095;SDS011;10706;49.036;12.112;2023-04-29T03:16:56;37.00;;;17.77;;
21095;SDS011;10706;49.036;12.112;2023-04-29T03:19:24;39.63;;;18.00;;
21095;SDS011;10706;49.036;12.112;2023-04-29T03:21:53;36.92;;;16.77;;
21095;SDS011;10706;49.036;12.112;2023-04-29T03:24:21;35.28;;;17.08;;
21095;SDS011;10706;49.036;12.112;2023-04-29T03:26:58;38.20;;;16.27;;
21095;SDS011;10706;49.036;12.112;2023-04-29T03:29:26;32.50;;;15.60;;
21095;SDS011;10706;49.036;12.112;2023-04-29T03:32:02;33.33;;;15.25;;
21095;SDS011;10706;49.036;12.112;2023-04-29T03:34:33;33.87;;;16.60;;
21095;SDS011;10706;49.036;12.112;2023-04-29T03:37:05;34.53;;;16.07;;
21095;SDS011;10706;49.036;12.112;2023-04-29T03:39:35;35.63;;;16.30;;
21095;SDS011;10706;49.036;12.112;2023-04-29T03:42:04;37.47;;;17.67;;
21095;SDS011;10706;49.036;12.112;2023-04-29T03:44:43;34.28;;;15.05;;
21095;SDS011;10706;49.036;12.112;2023-04-29T03:47:21;33.10;;;15.35;;
21095;SDS011;10706;49.036;12.112;2023-04-29T03:50:01;32.83;;;14.23;;
21095;SDS011;10706;49.036;12.112;2023-04-29T03:52:43;33.58;;;15.32;;
21095;SDS011;10706;49.036;12.112;2023-04-29T03:55:24;31.35;;;15.52;;
21095;SDS011;10706;49.036;12.112;2023-04-29T03:57:55;31.52;;;13.98;;
21095;SDS011;10706;49.036;12.112;2023-04-29T04:00:30;31.55;;;14.98;;
21095;SDS011;10706;49.036;12.112;2023-04-29T04:03:11;33.20;;;15.10;;
21095;SDS011;10706;49.036;12.112;2023-04-29T04:08:29;30.33;;;14.75;;
21095;SDS011;10706;49.036;12.112;2023-04-29T04:11:15;30.77;;;14.63;;
21095;SDS011;10706;49.036;12.112;2023-04-29T04:13:52;32.67;;;13.65;;
21095;SDS011;10706;49.036;12.112;2023-04-29T04:17:02;27.90;;;13.93;;
21095;SDS011;10706;49.036;12.112;2023-04-29T04:19:36;31.27;;;14.23;;
21095;SDS011;10706;49.036;12.112;2023-04-29T04:22:19;30.88;;;13.55;;
21095;SDS011;10706;49.036;12.112;2023-04-29T04:27:47;26.10;;;12.73;;
21095;SDS011;10706;49.036;12.112;2023-04-29T04:30:15;27.45;;;12.57;;
21095;SDS011;10706;49.036;12.112;2023-04-29T04:32:55;30.85;;;14.13;;
21095;SDS011;10706;49.036;12.112;2023-04-29T04:35:31;28.48;;;13.93;;
21095;SDS011;10706;49.036;12.112;2023-04-29T04:37:59;29.67;;;14.48;;
21095;SDS011;10706;49.036;12.112;2023-04-29T04:40:35;28.63;;;13.18;;
21095;SDS011;10706;49.036;12.112;2023-04-29T04:43:15;31.90;;;14.10;;
21095;SDS011;10706;49.036;12.112;2023-04-29T04:45:47;30.48;;;14.48;;
21095;SDS011;10706;49.036;12.112;2023-04-29T04:48:14;35.22;;;15.43;;
21095;SDS011;10706;49.036;12.112;2023-04-29T04:50:46;33.33;;;14.70;;
21095;SDS011;10706;49.036;12.112;2023-04-29T04:53:17;33.83;;;15.20;;
21095;SDS011;10706;49.036;12.112;2023-04-29T04:55:53;36.72;;;21.80;;
21095;SDS011;10706;49.036;12.112;2023-04-29T04:59:20;30.65;;;15.23;;
21095;SDS011;10706;49.036;12.112;2023-04-29T05:01:52;34.17;;;16.02;;
21095;SDS011;10706;49.036;12.112;2023-04-29T05:04:28;31.45;;;14.50;;
21095;SDS011;10706;49.036;12.112;2023-04-29T05:06:58;32.90;;;16.42;;
21095;SDS011;10706;49.036;12.112;2023-04-29T05:09:23;31.45;;;15.52;;
21095;SDS011;10706;49.036;12.112;2023-04-29T05:11:50;38.60;;;16.05;;
21095;SDS011;10706;49.036;12.112;2023-04-29T05:14:16;31.65;;;15.35;;
21095;SDS011;10706;49.036;12.112;2023-04-29T05:16:42;30.45;;;15.35;;
21095;SDS011;10706;49.036;12.112;2023-04-29T05:19:10;33.42;;;15.63;;
21095;SDS011;10706;49.036;12.112;2023-04-29T05:21:36;34.95;;;16.67;;
21095;SDS011;10706;49.036;12.112;2023-04-29T05:24:02;33.40;;;16.45;;
21095;SDS011;10706;49.036;12.112;2023-04-29T05:26:28;37.58;;;16.52;;
21095;SDS011;10706;49.036;12.112;2023-04-29T05:28:53;30.92;;;14.50;;
21095;SDS011;10706;49.036;12.112;2023-04-29T05:31:19;32.50;;;16.17;;
21095;SDS011;10706;49.036;12.112;2023-04-29T05:33:45;28.77;;;14.43;;
21095;SDS011;10706;49.036;12.112;2023-04-29T05:36:11;31.23;;;15.20;;
21095;SDS011;10706;49.036;12.112;2023-04-29T05:38:40;26.92;;;14.43;;
21095;SDS011;10706;49.036;12.112;2023-04-29T05:41:05;26.90;;;14.07;;
21095;SDS011;10706;49.036;12.112;2023-04-29T05:43:31;24.77;;;13.27;;
21095;SDS011;10706;49.036;12.112;2023-04-29T05:45:57;25.50;;;12.73;;
21095;SDS011;10706;49.036;12.112;2023-04-29T05:48:22;26.42;;;12.43;;
21095;SDS011;10706;49.036;12.112;2023-04-29T05:50:49;27.77;;;12.68;;
21095;SDS011;10706;49.036;12.112;2023-04-29T05:53:15;28.13;;;11.50;;
21095;SDS011;10706;49.036;12.112;2023-04-29T05:55:41;27.25;;;12.82;;
21095;SDS011;10706;49.036;12.112;2023-04-29T05:58:08;23.98;;;11.95;;
21095;SDS011;10706;49.036;12.112;2023-04-29T06:00:35;24.70;;;12.05;;
21095;SDS011;10706;49.036;12.112;2023-04-29T06:03:01;28.58;;;13.10;;
21095;SDS011;10706;49.036;12.112;2023-04-29T06:05:26;23.83;;;10.63;;
21095;SDS011;10706;49.036;12.112;2023-04-29T06:07:52;25.35;;;12.80;;
21095;SDS011;10706;49.036;12.112;2023-04-29T06:10:18;21.40;;;9.88;;
21095;SDS011;10706;49.036;12.112;2023-04-29T06:12:44;21.65;;;12.48;;
21095;SDS011;10706;49.036;12.112;2023-04-29T06:15:10;23.48;;;11.32;;
21095;SDS011;10706;49.036;12.112;2023-04-29T06:17:36;22.55;;;11.13;;
21095;SDS011;10706;49.036;12.112;2023-04-29T06:20:02;25.10;;;11.20;;
21095;SDS011;10706;49.036;12.112;2023-04-29T06:22:28;26.02;;;10.10;;
21095;SDS011;10706;49.036;12.112;2023-04-29T06:24:54;22.80;;;10.25;;
21095;SDS011;10706;49.036;12.112;2023-04-29T06:27:20;19.17;;;9.27;;
21095;SDS011;10706;49.036;12.112;2023-04-29T06:29:46;17.80;;;8.93;;
21095;SDS011;10706;49.036;12.112;2023-04-29T06:32:11;18.33;;;8.55;;
21095;SDS011;10706;49.036;12.112;2023-04-29T06:34:37;22.10;;;9.65;;
21095;SDS011;10706;49.036;12.112;2023-04-29T06:37:04;18.63;;;9.95;;
21095;SDS011;10706;49.036;12.112;2023-04-29T06:39:29;20.77;;;10.60;;
21095;SDS011;10706;49.036;12.112;2023-04-29T06:41:55;19.65;;;10.40;;
21095;SDS011;10706;49.036;12.112;2023-04-29T06:44:22;19.77;;;9.45;;
21095;SDS011;10706;49.036;12.112;2023-04-29T06:46:48;19.48;;;9.35;;
21095;SDS011;10706;49.036;12.112;2023-04-29T06:49:14;17.23;;;8.10;;
21095;SDS011;10706;49.036;12.112;2023-04-29T06:51:40;17.38;;;8.27;;
21095;SDS011;10706;49.036;12.112;2023-04-29T06:54:06;18.05;;;8.73;;
21095;SDS011;10706;49.036;12.112;2023-04-29T06:56:32;16.42;;;8.10;;
21095;SDS011;10706;49.036;12.112;2023-04-29T06:58:58;18.17;;;8.18;;
21095;SDS011;10706;49.036;12.112;2023-04-29T07:01:24;17.17;;;8.27;;
21095;SDS011;10706;49.036;12.112;2023-04-29T07:03:50;16.42;;;8.18;;
21095;SDS011;10706;49.036;12.112;2023-04-29T07:06:15;16.27;;;8.45;;
21095;SDS011;10706;49.036;12.112;2023-04-29T07:08:42;17.08;;;8.15;;
21095;SDS011;10706;49.036;12.112;2023-04-29T07:11:07;18.98;;;7.30;;
21095;SDS011;10706;49.036;12.112;2023-04-29T07:13:33;15.27;;;7.68;;
21095;SDS011;10706;49.036;12.112;2023-04-29T07:15:59;14.25;;;6.30;;
21095;SDS011;10706;49.036;12.112;2023-04-29T07:18:24;15.00;;;6.78;;
21095;SDS011;10706;49.036;12.112;2023-04-29T07:20:50;15.25;;;6.65;;
21095;SDS011;10706;49.036;12.112;2023-04-29T07:23:16;13.68;;;6.35;;
21095;SDS011;10706;49.036;12.112;2023-04-29T07:25:42;17.48;;;6.35;;
21095;SDS011;10706;49.036;12.112;2023-04-29T07:28:08;15.75;;;6.45;;
21095;SDS011;10706;49.036;12.112;2023-04-29T07:30:34;13.18;;;5.40;;
21095;SDS011;10706;49.036;12.112;2023-04-29T07:33:00;12.80;;;4.32;;
21095;SDS011;10706;49.036;12.112;2023-04-29T07:35:26;11.38;;;4.10;;
21095;SDS011;10706;49.036;12.112;2023-04-29T07:37:52;8.82;;;4.10;;
21095;SDS011;10706;49.036;12.112;2023-04-29T07:40:18;9.48;;;3.72;;
21095;SDS011;10706;49.036;12.112;2023-04-29T07:42:44;8.35;;;3.75;;
21095;SDS011;10706;49.036;12.112;2023-04-29T07:45:10;9.07;;;3.63;;
21095;SDS011;10706;49.036;12.112;2023-04-29T07:47:37;10.50;;;3.85;;
21095;SDS011;10706;49.036;12.112;2023-04-29T07:50:04;8.70;;;3.40;;
21095;SDS011;10706;49.036;12.112;2023-04-29T07:52:30;7.20;;;3.03;;
21095;SDS011;10706;49.036;12.112;2023-04-29T07:54:56;6.80;;;3.03;;
21095;SDS011;10706;49.036;12.112;2023-04-29T07:57:22;6.32;;;2.55;;
21095;SDS011;10706;49.036;12.112;2023-04-29T07:59:53;8.25;;;3.50;;
21095;SDS011;10706;49.036;12.112;2023-04-29T08:02:19;8.77;;;3.53;;
21095;SDS011;10706;49.036;12.112;2023-04-29T08:04:45;8.20;;;3.25;;
21095;SDS011;10706;49.036;12.112;2023-04-29T08:07:11;12.80;;;4.47;;
21095;SDS011;10706;49.036;12.112;2023-04-29T08:09:37;11.98;;;4.43;;
21095;SDS011;10706;49.036;12.112;2023-04-29T08:12:03;8.45;;;3.88;;
21095;SDS011;10706;49.036;12.112;2023-04-29T08:14:29;10.38;;;4.45;;
21095;SDS011;10706;49.036;12.112;2023-04-29T08:16:55;10.95;;;4.10;;
21095;SDS011;10706;49.036;12.112;2023-04-29T08:19:21;10.90;;;4.40;;
21095;SDS011;10706;49.036;12.112;2023-04-29T08:21:46;10.15;;;4.25;;
21095;SDS011;10706;49.036;12.112;2023-04-29T08:24:12;9.80;;;4.20;;
21095;SDS011;10706;49.036;12.112;2023-04-29T08:26:38;10.98;;;4.13;;
21095;SDS011;10706;49.036;12.112;2023-04-29T08:29:05;8.68;;;4.10;;
21095;SDS011;10706;49.036;12.112;2023-04-29T08:31:49;11.80;;;4.63;;
21095;SDS011;10706;49.036;12.112;2023-04-29T08:34:24;12.10;;;4.50;;
21095;SDS011;10706;49.036;12.112;2023-04-29T08:36:50;10.57;;;4.00;;
21095;SDS011;10706;49.036;12.112;2023-04-29T08:39:16;11.70;;;4.35;;
21095;SDS011;10706;49.036;12.112;2023-04-29T08:41:42;8.50;;;3.95;;
21095;SDS011;10706;49.036;12.112;2023-04-29T08:44:13;9.20;;;4.00;;
21095;SDS011;10706;49.036;12.112;2023-04-29T08:46:41;10.80;;;3.92;;
21095;SDS011;10706;49.036;12.112;2023-04-29T08:49:10;8.60;;;3.65;;
21095;SDS011;10706;49.036;12.112;2023-04-29T08:51:37;9.02;;;3.30;;
21095;SDS011;10706;49.036;12.112;2023-04-29T08:54:03;14.57;;;3.38;;
21095;SDS011;10706;49.036;12.112;2023-04-29T08:56:30;6.75;;;2.80;;
21095;SDS011;10706;49.036;12.112;2023-04-29T08:58:56;4.43;;;2.30;;
21095;SDS011;10706;49.036;12.112;2023-04-29T09:01:27;4.35;;;2.28;;
21095;SDS011;10706;49.036;12.112;2023-04-29T09:06:52;6.45;;;2.05;;
21095;SDS011;10706;49.036;12.112;2023-04-29T09:09:21;8.45;;;2.30;;
21095;SDS011;10706;49.036;12.112;2023-04-29T09:11:49;3.17;;;1.85;;
21095;SDS011;10706;49.036;12.112;2023-04-29T09:14:14;3.60;;;2.05;;
21095;SDS011;10706;49.036;12.112;2023-04-29T09:16:40;4.88;;;2.15;;
21095;SDS011;10706;49.036;12.112;2023-04-29T09:19:06;4.28;;;1.98;;
21095;SDS011;10706;49.036;12.112;2023-04-29T09:21:32;3.88;;;2.20;;
21095;SDS011;10706;49.036;12.112;2023-04-29T09:23:59;4.60;;;2.13;;
21095;SDS011;10706;49.036;12.112;2023-04-29T09:26:27;5.03;;;2.20;;
21095;SDS011;10706;49.036;12.112;2023-04-29T09:29:07;4.72;;;2.33;;
21095;SDS011;10706;49.036;12.112;2023-04-29T09:31:36;4.40;;;2.10;;
21095;SDS011;10706;49.036;12.112;2023-04-29T09:34:06;5.95;;;2.40;;
21095;SDS011;10706;49.036;12.112;2023-04-29T09:39:07;5.05;;;2.38;;
21095;SDS011;10706;49.036;12.112;2023-04-29T09:41:58;6.20;;;2.30;;
21095;SDS011;10706;49.036;12.112;2023-04-29T09:44:27;3.50;;;2.03;;
21095;SDS011;10706;49.036;12.112;2023-04-29T09:49:24;5.90;;;2.40;;
21095;SDS011;10706;49.036;12.112;2023-04-29T09:51:56;5.95;;;2.47;;
21095;SDS011;10706;49.036;12.112;2023-04-29T09:54:27;5.60;;;2.50;;
21095;SDS011;10706;49.036;12.112;2023-04-29T09:57:00;6.75;;;2.50;;
21095;SDS011;10706;49.036;12.112;2023-04-29T09:59:30;5.85;;;2.45;;
21095;SDS011;10706;49.036;12.112;2023-04-29T10:01:59;6.28;;;2.58;;
21095;SDS011;10706;49.036;12.112;2023-04-29T10:04:31;6.90;;;2.30;;
21095;SDS011;10706;49.036;12.112;2023-04-29T10:06:59;7.63;;;2.67;;
21095;SDS011;10706;49.036;12.112;2023-04-29T10:09:26;6.10;;;2.88;;
21095;SDS011;10706;49.036;12.112;2023-04-29T10:11:53;4.97;;;2.38;;
21095;SDS011;10706;49.036;12.112;2023-04-29T10:14:21;6.80;;;2.42;;
21095;SDS011;10706;49.036;12.112;2023-04-29T10:16:58;5.63;;;2.10;;
21095;SDS011;10706;49.036;12.112;2023-04-29T10:19:33;4.75;;;2.35;;
21095;SDS011;10706;49.036;12.112;2023-04-29T10:22:28;5.15;;;2.40;;
21095;SDS011;10706;49.036;12.112;2023-04-29T10:25:09;5.85;;;2.70;;
21095;SDS011;10706;49.036;12.112;2023-04-29T10:27:36;8.52;;;2.95;;
21095;SDS011;10706;49.036;12.112;2023-04-29T10:30:03;5.72;;;2.50;;
21095;SDS011;10706;49.036;12.112;2023-04-29T10:32:31;5.68;;;2.80;;
21095;SDS011;10706;49.036;12.112;2023-04-29T10:35:01;11.30;;;2.80;;
21095;SDS011;10706;49.036;12.112;2023-04-29T10:37:35;7.45;;;3.30;;
21095;SDS011;10706;49.036;12.112;2023-04-29T10:42:41;5.72;;;2.92;;
21095;SDS011;10706;49.036;12.112;2023-04-29T10:45:17;6.82;;;3.15;;
21095;SDS011;10706;49.036;12.112;2023-04-29T10:53:12;7.25;;;3.58;;
21095;SDS011;10706;49.036;12.112;2023-04-29T10:55:39;5.95;;;3.03;;
21095;SDS011;10706;49.036;12.112;2023-04-29T10:58:32;10.43;;;4.03;;
21095;SDS011;10706;49.036;12.112;2023-04-29T11:01:00;8.55;;;3.50;;
21095;SDS011;10706;49.036;12.112;2023-04-29T11:03:45;8.02;;;3.40;;
21095;SDS011;10706;49.036;12.112;2023-04-29T11:06:23;7.65;;;3.35;;
21095;SDS011;10706;49.036;12.112;2023-04-29T11:12:07;6.15;;;2.88;;
21095;SDS011;10706;49.036;12.112;2023-04-29T11:14:35;8.18;;;3.30;;
21095;SDS011;10706;49.036;12.112;2023-04-29T11:17:27;9.68;;;3.38;;
21095;SDS011;10706;49.036;12.112;2023-04-29T11:20:00;8.00;;;3.17;;
21095;SDS011;10706;49.036;12.112;2023-04-29T11:22:26;6.07;;;2.90;;
21095;SDS011;10706;49.036;12.112;2023-04-29T11:25:15;6.25;;;2.78;;
21095;SDS011;10706;49.036;12.112;2023-04-29T11:27:41;7.93;;;2.90;;
21095;SDS011;10706;49.036;12.112;2023-04-29T11:30:10;7.25;;;3.00;;
21095;SDS011;10706;49.036;12.112;2023-04-29T11:32:37;7.50;;;2.70;;
21095;SDS011;10706;49.036;12.112;2023-04-29T11:35:14;5.40;;;2.63;;
21095;SDS011;10706;49.036;12.112;2023-04-29T11:37:44;7.22;;;3.05;;
21095;SDS011;10706;49.036;12.112;2023-04-29T11:40:11;7.93;;;2.95;;
21095;SDS011;10706;49.036;12.112;2023-04-29T11:42:40;4.70;;;2.42;;
21095;SDS011;10706;49.036;12.112;2023-04-29T11:45:09;4.65;;;2.40;;
21095;SDS011;10706;49.036;12.112;2023-04-29T11:47:36;4.57;;;2.40;;
21095;SDS011;10706;49.036;12.112;2023-04-29T11:50:06;3.65;;;2.10;;
21095;SDS011;10706;49.036;12.112;2023-04-29T11:52:34;6.43;;;2.53;;
21095;SDS011;10706;49.036;12.112;2023-04-29T11:55:03;5.38;;;2.45;;
21095;SDS011;10706;49.036;12.112;2023-04-29T11:57:29;7.68;;;2.67;;
21095;SDS011;10706;49.036;12.112;2023-04-29T11:59:58;4.55;;;2.28;;
21095;SDS011;10706;49.036;12.112;2023-04-29T12:02:31;3.33;;;2.00;;
21095;SDS011;10706;49.036;12.112;2023-04-29T12:04:58;6.43;;;2.50;;
21095;SDS011;10706;49.036;12.112;2023-04-29T12:07:29;3.70;;;2.10;;
21095;SDS011;10706;49.036;12.112;2023-04-29T12:09:55;6.38;;;2.25;;
21095;SDS011;10706;49.036;12.112;2023-04-29T12:12:21;2.83;;;1.95;;
21095;SDS011;10706;49.036;12.112;2023-04-29T12:14:48;5.53;;;2.60;;
21095;SDS011;10706;49.036;12.112;2023-04-29T12:17:14;4.80;;;2.17;;
21095;SDS011;10706;49.036;12.112;2023-04-29T12:19:41;3.88;;;2.03;;
21095;SDS011;10706;49.036;12.112;2023-04-29T12:22:08;6.22;;;2.20;;
21095;SDS011;10706;49.036;12.112;2023-04-29T12:24:37;4.13;;;2.25;;
21095;SDS011;10706;49.036;12.112;2023-04-29T12:27:07;4.70;;;2.35;;
21095;SDS011;10706;49.036;12.112;2023-04-29T12:29:35;6.50;;;2.58;;
21095;SDS011;10706;49.036;12.112;2023-04-29T12:32:01;7.05;;;2.80;;
21095;SDS011;10706;49.036;12.112;2023-04-29T12:34:28;7.93;;;2.67;;
21095;SDS011;10706;49.036;12.112;2023-04-29T12:36:57;6.57;;;2.60;;
21095;SDS011;10706;49.036;12.112;2023-04-29T12:39:25;5.30;;;2.22;;
21095;SDS011;10706;49.036;12.112;2023-04-29T12:41:56;6.63;;;2.50;;
21095;SDS011;10706;49.036;12.112;2023-04-29T12:44:23;6.35;;;2.50;;
21095;SDS011;10706;49.036;12.112;2023-04-29T12:46:50;5.22;;;2.47;;
21095;SDS011;10706;49.036;12.112;2023-04-29T12:49:23;6.70;;;2.15;;
21095;SDS011;10706;49.036;12.112;2023-04-29T12:51:49;5.47;;;2.55;;
21095;SDS011;10706;49.036;12.112;2023-04-29T12:54:15;5.22;;;2.40;;
21095;SDS011;10706;49.036;12.112;2023-04-29T12:56:40;4.75;;;2.30;;
21095;SDS011;10706;49.036;12.112;2023-04-29T12:59:07;4.63;;;2.08;;
21095;SDS011;10706;49.036;12.112;2023-04-29T13:01:34;4.05;;;2.00;;
21095;SDS011;10706;49.036;12.112;2023-04-29T13:04:00;6.38;;;2.63;;
21095;SDS011;10706;49.036;12.112;2023-04-29T13:06:26;3.90;;;2.15;;
21095;SDS011;10706;49.036;12.112;2023-04-29T13:08:52;3.67;;;2.00;;
21095;SDS011;10706;49.036;12.112;2023-04-29T13:11:18;4.25;;;2.00;;
21095;SDS011;10706;49.036;12.112;2023-04-29T13:13:44;5.93;;;2.28;;
21095;SDS011;10706;49.036;12.112;2023-04-29T13:16:10;4.18;;;2.15;;
21095;SDS011;10706;49.036;12.112;2023-04-29T13:18:36;5.65;;;2.20;;
21095;SDS011;10706;49.036;12.112;2023-04-29T13:21:01;5.93;;;2.30;;
21095;SDS011;10706;49.036;12.112;2023-04-29T13:23:27;5.18;;;2.30;;
21095;SDS011;10706;49.036;12.112;2023-04-29T13:25:53;4.47;;;2.25;;
21095;SDS011;10706;49.036;12.112;2023-04-29T13:28:19;4.50;;;2.25;;
21095;SDS011;10706;49.036;12.112;2023-04-29T13:30:46;5.32;;;2.45;;
21095;SDS011;10706;49.036;12.112;2023-04-29T13:33:12;5.47;;;2.55;;
21095;SDS011;10706;49.036;12.112;2023-04-29T13:35:37;5.47;;;2.10;;
21095;SDS011;10706;49.036;12.112;2023-04-29T13:38:05;2.78;;;1.65;;
21095;SDS011;10706;49.036;12.112;2023-04-29T13:40:33;3.90;;;1.98;;
21095;SDS011;10706;49.036;12.112;2023-04-29T13:42:59;2.92;;;1.90;;
21095;SDS011;10706;49.036;12.112;2023-04-29T13:45:25;4.10;;;2.08;;
21095;SDS011;10706;49.036;12.112;2023-04-29T13:47:51;5.13;;;1.90;;
21095;SDS011;10706;49.036;12.112;2023-04-29T13:50:16;5.05;;;1.95;;
21095;SDS011;10706;49.036;12.112;2023-04-29T13:52:42;3.15;;;1.80;;
21095;SDS011;10706;49.036;12.112;2023-04-29T13:55:08;9.98;;;1.90;;
21095;SDS011;10706;49.036;12.112;2023-04-29T13:57:34;5.38;;;2.20;;
21095;SDS011;10706;49.036;12.112;2023-04-29T14:00:00;4.30;;;2.00;;
21095;SDS011;10706;49.036;12.112;2023-04-29T14:02:26;5.25;;;2.35;;
21095;SDS011;10706;49.036;12.112;2023-04-29T14:04:51;5.15;;;2.17;;
21095;SDS011;10706;49.036;12.112;2023-04-29T14:07:17;4.93;;;2.35;;
21095;SDS011;10706;49.036;12.112;2023-04-29T14:09:43;5.75;;;2.13;;
21095;SDS011;10706;49.036;12.112;2023-04-29T14:12:09;5.30;;;2.20;;
21095;SDS011;10706;49.036;12.112;2023-04-29T14:14:34;6.85;;;2.70;;
21095;SDS011;10706;49.036;12.112;2023-04-29T14:17:00;5.07;;;2.55;;
21095;SDS011;10706;49.036;12.112;2023-04-29T14:19:27;6.07;;;2.47;;
21095;SDS011;10706;49.036;12.112;2023-04-29T14:21:53;4.78;;;2.40;;
21095;SDS011;10706;49.036;12.112;2023-04-29T14:24:19;5.80;;;2.50;;
21095;SDS011;10706;49.036;12.112;2023-04-29T14:26:46;6.50;;;2.58;;
21095;SDS011;10706;49.036;12.112;2023-04-29T14:29:12;5.38;;;2.20;;
21095;SDS011;10706;49.036;12.112;2023-04-29T14:31:37;5.90;;;2.50;;
21095;SDS011;10706;49.036;12.112;2023-04-29T14:34:03;7.00;;;2.28;;
21095;SDS011;10706;49.036;12.112;2023-04-29T14:36:30;4.07;;;1.65;;
21095;SDS011;10706;49.036;12.112;2023-04-29T14:38:58;2.55;;;1.60;;
21095;SDS011;10706;49.036;12.112;2023-04-29T14:41:25;3.38;;;1.80;;
21095;SDS011;10706;49.036;12.112;2023-04-29T14:43:51;3.97;;;1.92;;
21095;SDS011;10706;49.036;12.112;2023-04-29T14:46:17;4.50;;;2.00;;
21095;SDS011;10706;49.036;12.112;2023-04-29T14:48:45;3.53;;;1.77;;
21095;SDS011;10706;49.036;12.112;2023-04-29T14:51:12;6.88;;;2.05;;
21095;SDS011;10706;49.036;12.112;2023-04-29T14:53:37;4.25;;;2.10;;
21095;SDS011;10706;49.036;12.112;2023-04-29T14:56:03;6.25;;;2.20;;
21095;SDS011;10706;49.036;12.112;2023-04-29T14:58:29;4.70;;;2.38;;
21095;SDS011;10706;49.036;12.112;2023-04-29T15:00:55;5.38;;;2.50;;
21095;SDS011;10706;49.036;12.112;2023-04-29T15:03:21;4.57;;;2.33;;
21095;SDS011;10706;49.036;12.112;2023-04-29T15:05:47;4.13;;;2.28;;
21095;SDS011;10706;49.036;12.112;2023-04-29T15:08:16;5.45;;;2.40;;
21095;SDS011;10706;49.036;12.112;2023-04-29T15:10:43;6.00;;;2.53;;
21095;SDS011;10706;49.036;12.112;2023-04-29T15:13:11;6.28;;;2.08;;
21095;SDS011;10706;49.036;12.112;2023-04-29T15:15:37;3.83;;;1.98;;
21095;SDS011;10706;49.036;12.112;2023-04-29T15:18:03;3.83;;;1.90;;
21095;SDS011;10706;49.036;12.112;2023-04-29T15:20:31;5.97;;;2.20;;
21095;SDS011;10706;49.036;12.112;2023-04-29T15:22:57;5.95;;;2.08;;
21095;SDS011;10706;49.036;12.112;2023-04-29T15:25:23;4.05;;;2.35;;
21095;SDS011;10706;49.036;12.112;2023-04-29T15:27:49;5.38;;;2.30;;
21095;SDS011;10706;49.036;12.112;2023-04-29T15:30:14;4.88;;;2.10;;
21095;SDS011;10706;49.036;12.112;2023-04-29T15:32:41;6.13;;;1.90;;